Time;durP1;ratioP1;P1;durP2;ratioP2;P2;SDS_P1;SDS_P2;PMS_P1;PMS_P2;Temp;Humidity;BMP_temperature;BMP_pressure;BME280_temperature;BME280_humidity;BME280_pressure;Samples;Min_cycle;Max_cycle;Signal;HPM_P1;HPM_P2
2022/05/04 00:01:35;;;;;;;5.63;1.73;;;;;;;10.04;68.30;100385.59;5162800;27;20077;-82
2022/05/04 00:04:00;;;;;;;8.23;2.43;;;;;;;9.91;68.26;100384.75;5165416;27;20027;-82
2022/05/04 00:06:27;;;;;;;8.75;2.20;;;;;;;9.82;68.60;100386.78;5161600;27;20062;-82
2022/05/04 00:08:52;;;;;;;7.38;1.85;;;;;;;9.85;69.10;100389.09;5143456;27;20035;-82
2022/05/04 00:11:17;;;;;;;4.47;2.00;;;;;;;9.91;68.58;100377.50;5160363;27;20027;-82
2022/05/04 00:13:43;;;;;;;6.60;2.27;;;;;;;9.73;68.99;100379.91;5160694;27;20056;-82
2022/05/04 00:16:08;;;;;;;8.10;2.83;;;;;;;9.80;68.97;100374.56;5142036;27;20026;-82
2022/05/04 00:18:36;;;;;;;5.83;1.77;;;;;;;9.76;69.33;100374.13;5160205;27;20030;-83
2022/05/04 00:21:01;;;;;;;6.22;1.92;;;;;;;9.73;69.34;100377.22;5160105;27;20508;-82
2022/05/04 00:23:26;;;;;;;5.30;2.00;;;;;;;9.59;69.85;100383.56;5159239;27;20051;-82
2022/05/04 00:25:52;;;;;;;7.00;2.28;;;;;;;9.57;69.66;100385.63;5159427;27;20027;-83
2022/05/04 00:28:17;;;;;;;5.97;2.35;;;;;;;9.51;70.30;100381.03;5158547;27;20070;-83
2022/05/04 00:30:42;;;;;;;4.15;1.60;;;;;;;9.54;69.90;100378.78;5160227;27;20141;-83
2022/05/04 00:33:08;;;;;;;5.77;1.90;;;;;;;9.49;69.67;100393.88;5159041;27;20031;-82
2022/05/04 00:35:34;;;;;;;6.57;2.07;;;;;;;9.48;70.34;100378.75;5159545;27;20124;-83
2022/05/04 00:38:00;;;;;;;3.85;1.88;;;;;;;9.48;70.03;100376.06;5159585;27;20050;-82
2022/05/04 00:40:25;;;;;;;3.30;1.48;;;;;;;9.53;69.90;100371.75;5158981;27;20472;-82
2022/05/04 00:42:51;;;;;;;4.73;2.17;;;;;;;9.43;70.16;100382.03;5139526;27;20030;-83
2022/05/04 00:45:16;;;;;;;7.80;2.10;;;;;;;9.49;69.99;100380.44;5138994;27;20445;-83
2022/05/04 00:47:41;;;;;;;5.97;2.50;;;;;;;9.34;70.53;100386.72;5158161;27;20045;-83
2022/05/04 00:50:08;;;;;;;5.03;2.27;;;;;;;9.31;70.51;100379.09;5158090;27;20027;-82
2022/05/04 00:52:35;;;;;;;6.25;2.03;;;;;;;9.40;70.54;100377.06;5157777;27;20031;-83
2022/05/04 00:55:02;;;;;;;4.00;1.60;;;;;;;9.42;70.24;100374.16;5158404;27;20033;-82
2022/05/04 01:00:13;;;;;;;7.90;1.90;;;;;;;9.23;71.02;100373.84;5158125;27;20063;-83
2022/05/04 01:02:39;;;;;;;6.22;2.25;;;;;;;9.20;70.93;100374.25;5157477;27;20106;-83
2022/05/04 01:05:09;;;;;;;5.40;1.88;;;;;;;9.23;70.97;100373.84;5157738;27;20034;-83
2022/05/04 01:07:35;;;;;;;5.18;1.88;;;;;;;9.12;71.28;100365.50;5157756;27;20084;-83
2022/05/04 01:10:01;;;;;;;5.88;2.05;;;;;;;9.12;71.43;100373.59;5157709;27;20033;-82
2022/05/04 01:12:26;;;;;;;5.73;2.00;;;;;;;9.05;71.36;100381.59;5158025;27;20030;-82
2022/05/04 01:14:51;;;;;;;7.10;2.57;;;;;;;9.17;70.94;100373.81;5138893;27;20044;-83
2022/05/04 01:17:16;;;;;;;4.53;1.90;;;;;;;8.98;72.01;100375.31;5157473;27;20078;-82
2022/05/04 01:19:43;;;;;;;4.77;1.90;;;;;;;8.98;71.89;100381.53;5139259;27;20022;-82
2022/05/04 01:22:09;;;;;;;5.53;1.90;;;;;;;8.93;71.76;100373.25;5157595;27;20472;-82
2022/05/04 01:24:35;;;;;;;6.22;2.20;;;;;;;8.90;72.11;100365.56;5157481;27;20027;-83
2022/05/04 01:27:00;;;;;;;4.50;1.97;;;;;;;8.85;72.47;100377.91;5157945;27;20034;-82
2022/05/04 01:29:26;;;;;;;8.77;2.17;;;;;;;8.90;72.25;100372.78;5138839;27;20033;-82
2022/05/04 01:31:52;;;;;;;5.18;1.88;;;;;;;8.83;72.72;100374.59;5158566;27;20027;-82
2022/05/04 01:34:17;;;;;;;5.33;2.60;;;;;;;8.79;72.71;100381.38;5157481;27;20393;-82
2022/05/04 01:36:43;;;;;;;7.97;2.17;;;;;;;8.86;72.22;100383.09;5157304;27;20101;-82
2022/05/04 01:39:08;;;;;;;5.97;2.00;;;;;;;8.83;72.07;100382.66;5156918;27;20126;-83
2022/05/04 01:44:17;;;;;;;5.38;2.85;;;;;;;8.78;72.40;100385.09;5156519;27;20456;-82
2022/05/04 01:46:42;;;;;;;6.07;2.63;;;;;;;8.68;72.89;100383.56;5137987;27;20035;-82
2022/05/04 01:49:08;;;;;;;5.40;2.03;;;;;;;8.75;72.61;100385.50;5157177;27;20101;-82
2022/05/04 01:51:33;;;;;;;4.70;1.92;;;;;;;8.79;72.71;100386.75;5157325;27;20467;-82
2022/05/04 01:53:59;;;;;;;9.47;2.30;;;;;;;8.73;72.88;100388.38;5157677;27;20031;-82
2022/05/04 01:56:24;;;;;;;8.10;2.20;;;;;;;8.68;72.65;100394.31;5134742;28;20134;-83
2022/05/04 01:58:49;;;;;;;7.15;2.00;;;;;;;8.62;73.01;100392.38;5136863;27;20567;-82
2022/05/04 02:01:15;;;;;;;7.07;2.60;;;;;;;8.64;73.27;100392.19;5140879;27;20030;-83
2022/05/04 02:03:40;;;;;;;5.03;2.17;;;;;;;8.64;73.00;100379.59;5140489;27;20023;-83
2022/05/04 02:06:06;;;;;;;10.43;2.70;;;;;;;8.60;72.63;100381.00;5140027;27;20056;-83
2022/05/04 02:08:33;;;;;;;7.28;2.00;;;;;;;8.55;73.07;100383.47;5137988;27;20060;-83
2022/05/04 02:10:59;;;;;;;5.00;2.55;;;;;;;8.54;73.15;100378.28;5140018;27;20031;-83
2022/05/04 02:13:24;;;;;;;5.40;1.92;;;;;;;8.57;72.95;100376.03;5138386;27;20088;-83
2022/05/04 02:15:50;;;;;;;5.90;2.20;;;;;;;8.52;73.04;100372.28;5141014;27;20035;-83
2022/05/04 02:18:15;;;;;;;6.93;2.60;;;;;;;8.41;73.38;100380.84;5140225;27;20120;-82
2022/05/04 02:20:40;;;;;;;6.40;2.40;;;;;;;8.34;73.86;100389.66;5140182;27;20027;-82
2022/05/04 02:23:06;;;;;;;6.27;2.40;;;;;;;8.33;73.91;100384.47;5138166;27;20027;-82
2022/05/04 02:25:31;;;;;;;8.13;2.93;;;;;;;8.31;74.20;100378.44;5139965;27;20427;-82
2022/05/04 02:27:56;;;;;;;6.73;2.57;;;;;;;8.30;74.45;100369.53;5139219;27;20114;-82
2022/05/04 02:30:21;;;;;;;7.37;2.73;;;;;;;8.30;74.26;100374.09;5139139;27;20027;-82
2022/05/04 02:32:47;;;;;;;6.77;2.20;;;;;;;8.20;74.47;100377.09;5141439;27;20023;-82
2022/05/04 02:37:57;;;;;;;6.35;2.90;;;;;;;8.13;75.02;100364.63;5148980;27;20057;-82
2022/05/04 02:40:22;;;;;;;;;;;;;;;8.09;75.12;100380.25;5153098;27;20056;-83
2022/05/04 02:42:47;;;;;;;6.40;2.53;;;;;;;8.05;75.18;100379.00;5152802;27;20436;-83
2022/05/04 02:45:14;;;;;;;7.47;2.87;;;;;;;8.07;75.29;100371.56;5146768;27;20046;-83
2022/05/04 02:47:39;;;;;;;8.80;3.30;;;;;;;7.99;75.41;100382.44;5140686;27;20449;-83
2022/05/04 02:50:06;;;;;;;7.75;3.38;;;;;;;7.91;75.35;100375.31;5140340;27;20030;-82
2022/05/04 02:52:32;;;;;;;6.25;2.63;;;;;;;7.87;75.54;100370.53;5137506;27;20065;-83
2022/05/04 02:54:57;;;;;;;7.78;2.30;;;;;;;7.94;75.51;100374.09;5138960;27;20419;-83
2022/05/04 02:57:22;;;;;;;7.00;2.67;;;;;;;7.89;75.14;100371.97;5159125;27;20054;-83
2022/05/04 02:59:48;;;;;;;6.93;2.57;;;;;;;7.82;75.37;100371.09;5159447;27;20453;-83
2022/05/04 03:02:28;;;;;;;5.20;2.50;;;;;;;7.82;75.60;100373.78;5141241;27;20027;-83
2022/05/04 03:04:59;;;;;;;7.72;2.83;;;;;;;7.73;75.87;100371.38;5140788;27;20034;-83
2022/05/04 03:07:24;;;;;;;5.95;2.15;;;;;;;7.70;75.94;100369.91;5141046;27;20034;-83
2022/05/04 03:09:50;;;;;;;8.90;2.80;;;;;;;7.66;76.00;100372.16;5158625;27;20030;-82
2022/05/04 03:12:15;;;;;;;6.93;2.90;;;;;;;7.60;76.09;100372.03;5140091;27;20049;-83
2022/05/04 03:14:40;;;;;;;13.30;4.30;;;;;;;7.50;76.61;100371.50;5158742;27;20022;-82
2022/05/04 03:17:06;;;;;;;13.00;3.80;;;;;;;7.50;76.64;100372.34;5159018;27;20034;-82
2022/05/04 03:19:31;;;;;;;9.17;3.03;;;;;;;7.48;76.45;100370.88;5159217;27;20061;-82
2022/05/04 03:21:56;;;;;;;8.67;3.63;;;;;;;7.50;76.22;100376.88;5158919;27;20384;-82
2022/05/04 03:24:22;;;;;;;7.43;2.50;;;;;;;7.47;76.00;100367.34;5158189;27;20027;-83
2022/05/04 03:26:47;;;;;;;7.60;2.30;;;;;;;7.50;75.99;100364.31;5157939;27;20026;-83
2022/05/04 03:29:12;;;;;;;7.97;2.50;;;;;;;7.47;76.04;100371.88;5158972;27;20041;-82
2022/05/04 03:31:38;;;;;;;5.97;2.30;;;;;;;7.46;76.04;100367.53;5158295;27;20019;-83
2022/05/04 03:34:04;;;;;;;6.82;2.78;;;;;;;7.41;76.73;100370.75;5160082;27;20030;-83
2022/05/04 03:36:29;;;;;;;8.70;2.65;;;;;;;7.38;76.90;100370.28;5140386;27;20023;-83
2022/05/04 03:38:55;;;;;;;8.20;2.88;;;;;;;7.40;76.25;100370.94;5158122;27;20037;-83
2022/05/04 03:41:23;;;;;;;10.75;3.72;;;;;;;7.34;76.51;100366.34;5158270;27;20026;-83
2022/05/04 03:43:49;;;;;;;12.48;3.70;;;;;;;7.38;76.57;100370.28;5158252;27;20034;-83
2022/05/04 03:46:23;;;;;;;7.57;2.88;;;;;;;7.40;76.73;100373.63;5139808;27;20071;-82
2022/05/04 03:48:52;;;;;;;7.93;2.92;;;;;;;7.37;76.47;100365.94;5167865;27;20071;-83
2022/05/04 03:51:20;;;;;;;7.70;3.00;;;;;;;7.34;76.76;100369.88;5166235;27;20051;-81
2022/05/04 03:53:50;;;;;;;10.50;2.60;;;;;;;7.41;76.64;100367.25;5144717;27;20422;-81
2022/05/04 03:56:17;;;;;;;6.70;2.28;;;;;;;7.34;76.18;100369.03;5163432;27;20092;-83
2022/05/04 03:58:43;;;;;;;7.68;2.28;;;;;;;7.25;77.08;100365.59;5164906;27;20018;-82
2022/05/04 04:01:08;;;;;;;7.00;2.83;;;;;;;7.24;76.93;100367.44;5146270;27;20058;-83
2022/05/04 04:03:33;;;;;;;7.53;2.92;;;;;;;7.22;76.80;100366.78;5145958;27;20035;-81
2022/05/04 04:05:59;;;;;;;7.47;3.00;;;;;;;7.17;77.04;100363.81;5163842;27;20026;-81
2022/05/04 04:08:25;;;;;;;8.93;2.58;;;;;;;7.16;76.85;100362.19;5140056;27;20023;-80
2022/05/04 04:10:51;;;;;;;10.80;2.83;;;;;;;7.13;77.29;100364.41;5159327;27;20027;-80
2022/05/04 04:13:16;;;;;;;11.43;3.13;;;;;;;7.08;77.48;100354.22;5159630;27;20026;-80
2022/05/04 04:15:42;;;;;;;8.00;3.50;;;;;;;7.10;77.75;100362.09;5158525;27;20091;-80
2022/05/04 04:18:08;;;;;;;5.70;2.38;;;;;;;7.11;77.40;100361.06;5159053;27;20026;-80
2022/05/04 04:23:19;;;;;;;9.63;3.70;;;;;;;7.03;78.32;100358.47;5161237;27;20442;-79
2022/05/04 04:25:44;;;;;;;10.77;3.37;;;;;;;7.06;78.19;100372.31;5159725;27;20113;-80
2022/05/04 04:28:09;;;;;;;12.23;3.33;;;;;;;7.03;78.02;100371.84;5158100;27;20022;-80
2022/05/04 04:30:38;;;;;;;6.43;2.50;;;;;;;7.07;77.59;100368.63;5160182;27;20640;-80
2022/05/04 04:33:05;;;;;;;7.30;2.65;;;;;;;7.17;77.47;100377.22;5161001;27;20106;-80
2022/05/04 04:35:31;;;;;;;;;;;;;;;7.07;77.95;100374.00;5144255;27;20027;-81
2022/05/04 04:37:56;;;;;;;7.05;2.63;;;;;;;7.09;77.76;100379.16;5159610;27;19918;-81
2022/05/04 04:40:21;;;;;;;8.80;3.27;;;;;;;7.06;77.72;100375.00;5160473;27;20027;-81
2022/05/04 04:42:47;;;;;;;9.02;3.03;;;;;;;7.03;77.76;100375.38;5159100;27;20110;-81
2022/05/04 04:45:12;;;;;;;5.37;2.40;;;;;;;7.11;78.76;100379.81;5159671;27;20030;-82
2022/05/04 04:47:37;;;;;;;8.13;2.93;;;;;;;7.28;77.96;100381.31;5160771;27;20034;-82
2022/05/04 04:50:03;;;;;;;6.90;2.73;;;;;;;7.42;76.95;100383.16;5163067;27;20050;-81
2022/05/04 04:52:28;;;;;;;10.80;3.38;;;;;;;7.29;77.47;100385.66;5163821;27;20023;-81
2022/05/04 04:54:54;;;;;;;12.00;3.40;;;;;;;7.12;77.64;100385.00;5163937;27;20030;-81
2022/05/04 04:57:19;;;;;;;6.77;2.70;;;;;;;7.21;77.87;100386.56;5163459;27;20122;-80
2022/05/04 04:59:44;;;;;;;11.40;3.53;;;;;;;7.25;78.46;100387.88;5163668;27;20027;-81
2022/05/04 05:02:10;;;;;;;8.10;3.17;;;;;;;7.27;78.37;100390.38;5163404;27;20062;-81
2022/05/04 05:04:36;;;;;;;8.97;2.53;;;;;;;7.29;78.33;100391.03;5164750;27;20385;-81
2022/05/04 05:07:01;;;;;;;7.20;2.28;;;;;;;7.31;77.57;100395.19;5165970;27;20030;-80
2022/05/04 05:09:27;;;;;;;8.20;3.65;;;;;;;7.29;77.77;100394.53;5166434;27;20043;-80
2022/05/04 05:11:52;;;;;;;12.07;3.83;;;;;;;7.34;76.77;100390.47;5166065;27;20026;-79
2022/05/04 05:17:02;;;;;;;7.30;3.03;;;;;;;7.24;77.21;100388.88;5168481;27;20079;-81
2022/05/04 05:19:27;;;;;;;6.63;2.72;;;;;;;7.35;77.11;100394.78;5168753;27;20026;-80
2022/05/04 05:21:53;;;;;;;5.78;2.50;;;;;;;7.28;76.87;100392.88;5167509;27;20031;-80
2022/05/04 05:24:18;;;;;;;11.40;3.60;;;;;;;7.26;76.72;100388.69;5166918;27;20038;-80
2022/05/04 05:26:43;;;;;;;6.83;2.70;;;;;;;7.12;77.61;100386.84;5167510;27;20022;-81
2022/05/04 05:29:09;;;;;;;6.93;2.80;;;;;;;7.07;77.95;100392.75;5165897;27;20035;-81
2022/05/04 05:31:34;;;;;;;9.43;4.23;;;;;;;7.11;77.49;100391.38;5164334;27;20026;-81
2022/05/04 05:33:59;;;;;;;8.30;3.17;;;;;;;7.23;76.79;100384.53;5161796;27;20035;-82
2022/05/04 05:36:24;;;;;;;8.20;3.83;;;;;;;7.26;76.97;100388.69;5164533;27;20522;-82
2022/05/04 05:38:50;;;;;;;8.80;3.83;;;;;;;7.33;76.71;100392.31;5163406;27;20042;-82
2022/05/04 05:41:15;;;;;;;12.77;3.00;;;;;;;7.30;76.31;100382.78;5163109;27;20042;-82
2022/05/04 05:43:40;;;;;;;7.07;2.90;;;;;;;7.16;76.78;100394.34;5163331;27;20027;-81
2022/05/04 05:46:06;;;;;;;9.10;3.90;;;;;;;7.27;77.17;100387.69;5162805;27;20031;-79
2022/05/04 05:48:31;;;;;;;7.83;2.83;;;;;;;7.32;76.94;100388.81;5164218;27;20054;-80
2022/05/04 05:50:56;;;;;;;10.00;2.70;;;;;;;7.51;75.96;100392.78;5163793;27;20452;-80
2022/05/04 05:53:22;;;;;;;8.20;3.00;;;;;;;7.59;76.06;100395.34;5166575;27;20061;-80
2022/05/04 05:55:49;;;;;;;10.32;3.50;;;;;;;7.65;75.71;100388.41;5163405;27;20046;-79
2022/05/04 05:58:14;;;;;;;7.75;2.88;;;;;;;7.77;74.93;100391.44;5163217;27;20043;-79
2022/05/04 06:00:39;;;;;;;8.63;3.30;;;;;;;7.77;75.04;100386.06;5162518;27;20445;-80
2022/05/04 06:03:05;;;;;;;8.97;2.70;;;;;;;8.09;74.10;100395.53;5163791;27;20062;-80
2022/05/04 06:05:30;;;;;;;7.53;2.93;;;;;;;8.11;73.55;100388.13;5162689;27;20027;-82
2022/05/04 06:07:55;;;;;;;8.40;3.00;;;;;;;7.94;74.30;100393.72;5163989;27;20259;-79
2022/05/04 06:10:21;;;;;;;7.30;3.30;;;;;;;8.23;74.02;100382.09;5163343;27;20495;-80
2022/05/04 06:12:46;;;;;;;6.17;2.83;;;;;;;8.12;74.02;100390.63;5164973;27;20033;-80
2022/05/04 06:15:12;;;;;;;7.97;2.83;;;;;;;8.26;73.37;100396.97;5163269;27;20297;-80
2022/05/04 06:17:38;;;;;;;11.68;4.10;;;;;;;8.45;72.72;100385.63;5144520;27;20030;-80
2022/05/04 06:20:04;;;;;;;10.77;3.50;;;;;;;8.46;72.85;100389.97;5163692;27;20084;-80
2022/05/04 06:22:30;;;;;;;9.43;2.95;;;;;;;8.53;72.44;100390.88;5162439;27;20521;-80
2022/05/04 06:24:55;;;;;;;8.55;2.95;;;;;;;8.68;71.82;100385.41;5162769;27;20026;-81
2022/05/04 06:27:20;;;;;;;8.60;2.73;;;;;;;8.79;71.52;100392.94;5161853;27;20027;-80
2022/05/04 06:35:14;;;;;;;7.82;3.42;;;;;;;9.76;68.46;100382.19;5160470;27;20802;-80
2022/05/04 06:37:39;;;;;;;7.25;2.78;;;;;;;9.81;68.29;100387.00;5159902;27;20126;-80
2022/05/04 06:40:06;;;;;;;11.10;3.63;;;;;;;10.00;67.55;100389.75;5160896;27;20037;-80
2022/05/04 06:42:32;;;;;;;8.10;2.95;;;;;;;10.07;66.46;100393.28;5169100;27;20030;-81
2022/05/04 06:44:58;;;;;;;18.65;3.10;;;;;;;10.40;65.72;100392.56;5161932;27;20449;-80
2022/05/04 06:47:23;;;;;;;11.55;3.92;;;;;;;10.49;66.41;100396.75;5164453;27;20035;-79
2022/05/04 06:49:51;;;;;;;8.55;3.28;;;;;;;10.74;64.91;100389.72;5164537;27;20039;-79
2022/05/04 06:52:16;;;;;;;7.25;3.20;;;;;;;10.64;65.11;100392.00;5145554;27;20533;-80
2022/05/04 06:54:42;;;;;;;7.90;3.10;;;;;;;10.65;65.28;100396.34;5164681;27;20023;-80
2022/05/04 06:57:13;;;;;;;6.13;2.90;;;;;;;10.42;65.49;100407.50;5163592;27;20053;-79
2022/05/04 06:59:39;;;;;;;6.97;2.75;;;;;;;11.02;64.45;100392.19;5145729;27;20034;-79
2022/05/04 07:02:04;;;;;;;7.87;3.03;;;;;;;10.93;64.04;100400.69;5164723;27;20022;-79
2022/05/04 07:04:30;;;;;;;8.68;3.83;;;;;;;10.00;66.99;100397.00;5164738;27;20358;-79
2022/05/04 07:06:55;;;;;;;7.32;2.88;;;;;;;10.32;66.89;100398.16;5147010;27;20046;-79
2022/05/04 07:09:20;;;;;;;6.97;3.00;;;;;;;10.20;66.88;100402.47;5166906;27;20035;-80
2022/05/04 07:11:46;;;;;;;8.73;3.60;;;;;;;10.48;66.16;100394.25;5169704;27;20023;-79
2022/05/04 07:14:14;;;;;;;9.63;3.60;;;;;;;10.68;65.26;100393.25;5151442;27;20047;-80
2022/05/04 07:16:40;;;;;;;7.32;2.80;;;;;;;10.66;66.16;100402.56;5169150;27;20034;-79
2022/05/04 07:19:05;;;;;;;12.57;3.38;;;;;;;10.70;65.61;100395.72;5149493;27;20051;-79
2022/05/04 07:21:40;;;;;;;7.75;3.28;;;;;;;10.69;65.26;100405.69;5150168;27;20027;-81
2022/05/04 07:24:06;;;;;;;8.20;3.35;;;;;;;10.58;66.08;100397.34;5148639;27;20022;-79
2022/05/04 07:26:31;;;;;;;11.65;3.70;;;;;;;10.69;65.53;100397.59;5164767;27;20112;-79
2022/05/04 07:28:56;;;;;;;9.13;3.33;;;;;;;10.69;65.47;100392.22;5146864;27;20095;-79
2022/05/04 07:31:22;;;;;;;8.47;3.37;;;;;;;10.79;64.84;100397.16;5165426;27;20026;-80
2022/05/04 07:33:47;;;;;;;7.45;3.42;;;;;;;10.96;65.46;100394.88;5146412;27;20260;-80
2022/05/04 07:36:13;;;;;;;11.70;3.07;;;;;;;11.29;64.33;100401.06;5166024;27;20110;-79
2022/05/04 07:38:38;;;;;;;7.80;3.13;;;;;;;11.42;64.75;100409.16;5167313;27;20284;-79
2022/05/04 07:43:47;;;;;;;9.52;3.88;;;;;;;11.67;62.52;100411.16;5168010;27;20069;-80
2022/05/04 07:46:13;;;;;;;9.18;4.10;;;;;;;11.86;62.39;100415.69;5146476;27;20031;-79
2022/05/04 07:48:38;;;;;;;11.85;4.15;;;;;;;11.88;61.71;100419.03;5166235;27;20034;-80
2022/05/04 07:51:03;;;;;;;10.97;4.23;;;;;;;11.90;62.32;100411.53;5165215;27;20037;-80
2022/05/04 07:53:29;;;;;;;14.60;5.40;;;;;;;11.78;62.73;100424.06;5164008;27;20045;-80
2022/05/04 07:55:54;;;;;;;10.87;3.70;;;;;;;11.98;62.20;100429.38;5162807;27;20501;-80
2022/05/04 07:58:19;;;;;;;14.20;5.17;;;;;;;11.68;61.89;100429.00;5163286;27;20030;-79
2022/05/04 08:06:13;;;;;;;8.48;3.85;;;;;;;12.10;62.09;100420.38;5163200;27;20061;-79
2022/05/04 08:08:39;;;;;;;10.03;4.10;;;;;;;12.23;61.90;100426.75;5162164;27;20023;-79
2022/05/04 08:11:04;;;;;;;7.50;3.40;;;;;;;12.24;61.20;100417.63;5143663;27;20337;-79
2022/05/04 08:13:31;;;;;;;8.73;3.38;;;;;;;12.34;61.63;100424.22;5161753;27;20044;-79
2022/05/04 08:15:56;;;;;;;8.98;3.47;;;;;;;12.49;60.49;100421.22;5161489;27;20027;-79
2022/05/04 08:18:22;;;;;;;9.20;3.47;;;;;;;12.70;59.54;100407.38;5162269;27;20033;-79
2022/05/04 08:20:48;;;;;;;8.80;3.00;;;;;;;12.74;59.66;100407.72;5161836;27;20260;-79
2022/05/04 08:23:14;;;;;;;8.35;3.08;;;;;;;12.61;59.65;100402.44;5161062;27;20142;-79
2022/05/04 08:25:39;;;;;;;9.15;3.00;;;;;;;12.54;60.73;100405.16;5161727;27;20484;-79
2022/05/04 08:28:05;;;;;;;7.47;3.03;;;;;;;12.70;60.78;100406.53;5162092;27;20039;-79
2022/05/04 08:30:30;;;;;;;13.60;4.75;;;;;;;12.81;59.60;100413.94;5161940;27;20296;-79
2022/05/04 08:32:55;;;;;;;10.93;4.80;;;;;;;12.76;59.51;100417.28;5162315;27;20031;-79
2022/05/04 08:35:21;;;;;;;14.50;4.07;;;;;;;12.73;60.91;100420.41;5162163;27;20279;-79
2022/05/04 08:37:46;;;;;;;8.50;3.97;;;;;;;12.58;59.71;100414.50;5162373;27;20033;-79
2022/05/04 08:40:20;;;;;;;10.73;3.95;;;;;;;12.67;60.19;100417.78;5161015;27;20031;-79
2022/05/04 08:42:46;;;;;;;10.00;4.45;;;;;;;12.77;60.86;100412.69;5161544;27;20023;-79
2022/05/04 08:45:12;;;;;;;8.35;3.75;;;;;;;12.95;59.34;100411.94;5144653;27;20027;-79
2022/05/04 08:47:41;;;;;;;8.43;3.80;;;;;;;13.36;58.58;100411.41;5143217;27;20038;-79
2022/05/04 08:50:21;;;;;;;12.88;4.50;;;;;;;13.23;58.53;100409.66;5162049;27;20034;-78
2022/05/04 08:52:56;;;;;;;9.63;3.88;;;;;;;13.39;58.06;100409.09;5142482;27;20380;-78
2022/05/04 08:55:22;;;;;;;10.85;3.78;;;;;;;13.28;58.66;100412.50;5143214;27;20029;-79
2022/05/04 08:57:48;;;;;;;9.23;3.53;;;;;;;13.20;58.74;100407.41;5162124;27;20058;-79
2022/05/04 09:00:14;;;;;;;10.35;4.22;;;;;;;13.43;58.38;100402.19;5142723;27;20030;-79
2022/05/04 09:02:40;;;;;;;13.63;4.22;;;;;;;13.48;58.00;100405.03;5161354;27;20250;-79
2022/05/04 09:05:25;;;;;;;10.25;4.10;;;;;;;13.53;57.91;100404.34;5160841;27;20034;-79
2022/05/04 09:07:55;;;;;;;9.13;4.20;;;;;;;13.63;57.80;100403.81;5160899;27;20115;-79
2022/05/04 09:10:33;;;;;;;11.00;3.97;;;;;;;13.77;57.08;100405.34;5160211;27;20042;-79
2022/05/04 09:13:03;;;;;;;9.20;4.03;;;;;;;13.86;57.07;100401.25;5160346;27;20026;-79
2022/05/04 09:15:31;;;;;;;10.68;4.18;;;;;;;13.76;57.42;100407.22;5141901;27;20031;-79
2022/05/04 09:18:00;;;;;;;11.05;4.20;;;;;;;13.87;56.77;100402.91;5160646;27;20054;-79
2022/05/04 09:20:45;;;;;;;11.98;4.18;;;;;;;14.03;57.14;100399.59;5160326;27;20050;-79
2022/05/04 09:23:31;;;;;;;11.85;5.38;;;;;;;13.89;57.73;100401.66;5160279;27;20037;-79
2022/05/04 09:26:05;;;;;;;10.57;3.85;;;;;;;14.10;57.24;100400.34;5161023;27;20034;-79
2022/05/04 09:28:32;;;;;;;9.73;4.05;;;;;;;14.35;56.79;100393.94;5141967;27;20037;-79
2022/05/04 09:30:59;;;;;;;11.65;5.00;;;;;;;14.21;55.96;100393.31;5160667;27;20044;-79
2022/05/04 09:33:29;;;;;;;13.82;4.50;;;;;;;14.41;55.41;100388.47;5160308;27;20052;-79
2022/05/04 09:35:56;;;;;;;11.18;4.32;;;;;;;14.48;54.91;100396.53;5161096;27;20027;-79
2022/05/04 09:46:46;;;;;;;9.05;4.68;;;;;;;14.33;54.46;100393.38;5160051;27;20061;-80
2022/05/04 09:49:20;;;;;;;8.27;4.00;;;;;;;14.28;55.06;100388.63;5140343;27;20057;-77
2022/05/04 09:51:51;;;;;;;13.48;4.60;;;;;;;14.52;54.86;100387.66;5155263;27;20106;-76
2022/05/04 09:54:19;;;;;;;15.15;4.53;;;;;;;14.68;54.39;100390.81;5155409;27;20022;-78
2022/05/04 09:56:50;;;;;;;11.00;4.55;;;;;;;14.93;53.46;100392.25;5154875;27;20051;-77
2022/05/04 09:59:16;;;;;;;10.32;4.93;;;;;;;15.18;53.48;100393.94;5155124;27;20473;-76
2022/05/04 10:01:43;;;;;;;10.00;4.65;;;;;;;15.35;53.02;100388.63;5136490;27;20427;-76
2022/05/04 10:04:09;;;;;;;10.13;4.82;;;;;;;15.44;52.14;100398.03;5155256;27;20110;-75
2022/05/04 10:06:35;;;;;;;11.27;4.22;;;;;;;15.16;53.35;100391.44;5156000;27;20034;-74
2022/05/04 10:09:02;;;;;;;12.82;4.50;;;;;;;15.36;52.05;100396.53;5155635;27;20461;-75
2022/05/04 10:11:30;;;;;;;8.52;4.18;;;;;;;15.27;52.62;100387.91;5155251;27;20031;-75
2022/05/04 10:13:59;;;;;;;9.68;4.93;;;;;;;15.05;52.87;100394.16;5155573;27;20030;-74
2022/05/04 10:16:26;;;;;;;12.02;4.63;;;;;;;14.87;53.41;100385.03;5155212;27;20041;-74
2022/05/04 10:18:53;;;;;;;11.93;4.90;;;;;;;15.00;53.31;100384.00;5154933;27;20027;-75
2022/05/04 10:21:19;;;;;;;11.02;4.25;;;;;;;15.15;52.72;100384.38;5139883;27;20027;-74
2022/05/04 10:23:53;;;;;;;8.38;4.03;;;;;;;15.14;53.15;100381.88;5159790;27;20041;-74
2022/05/04 10:26:31;;;;;;;9.43;4.18;;;;;;;15.20;53.38;100378.22;5159394;27;20421;-74
2022/05/04 10:31:52;;;;;;;11.93;5.65;;;;;;;15.33;52.80;100380.69;5160490;27;20071;-74
2022/05/04 10:34:17;;;;;;;10.88;5.32;;;;;;;15.33;52.24;100379.88;5172552;27;20049;-75
2022/05/04 10:36:46;;;;;;;10.80;4.85;;;;;;;15.25;52.75;100384.59;5175619;27;20022;-74
2022/05/04 10:39:19;;;;;;;10.60;5.03;;;;;;;15.10;53.48;100380.69;5167761;27;20080;-74
2022/05/04 10:41:45;;;;;;;12.77;4.22;;;;;;;14.84;53.99;100380.09;5161906;27;20095;-74
2022/05/04 10:44:11;;;;;;;10.27;4.73;;;;;;;14.98;53.29;100367.13;5160797;27;20434;-75
2022/05/04 10:46:41;;;;;;;11.43;4.22;;;;;;;15.37;53.32;100376.47;5159962;27;20106;-75
2022/05/04 10:49:10;;;;;;;11.38;4.45;;;;;;;15.73;50.67;100374.53;5159447;27;20034;-75
2022/05/04 10:51:39;;;;;;;11.52;5.30;;;;;;;15.84;50.71;100384.53;5159119;27;20476;-75
2022/05/04 10:54:10;;;;;;;10.18;4.60;;;;;;;15.44;51.41;100371.72;5159295;27;20353;-75
2022/05/04 10:56:44;;;;;;;9.73;4.70;;;;;;;15.53;52.28;100372.19;5140125;27;20043;-74
2022/05/04 10:59:11;;;;;;;11.23;4.78;;;;;;;15.74;51.45;100366.16;5158512;27;20035;-75
2022/05/04 11:01:40;;;;;;;12.43;5.32;;;;;;;16.00;50.29;100377.53;5158319;27;20384;-75
2022/05/04 11:04:09;;;;;;;11.10;4.85;;;;;;;15.91;50.84;100372.47;5158175;27;20035;-75
2022/05/04 11:06:39;;;;;;;9.73;4.60;;;;;;;15.93;50.21;100377.69;5158393;27;20104;-75
2022/05/04 11:09:11;;;;;;;12.27;4.88;;;;;;;15.85;50.56;100375.34;5158218;27;20038;-75
2022/05/04 11:11:39;;;;;;;10.63;5.15;;;;;;;15.60;50.67;100372.91;5157685;27;20139;-75
2022/05/04 11:14:06;;;;;;;11.77;4.60;;;;;;;15.56;51.08;100369.84;5157329;27;20031;-74
2022/05/04 11:16:32;;;;;;;10.63;4.63;;;;;;;15.97;51.12;100376.09;5139748;27;20057;-75
2022/05/04 11:18:59;;;;;;;9.20;4.05;;;;;;;16.07;49.92;100364.63;5157366;27;20122;-75
2022/05/04 11:21:26;;;;;;;8.45;4.25;;;;;;;16.17;50.00;100364.81;5157928;27;20358;-75
2022/05/04 11:23:56;;;;;;;8.88;4.28;;;;;;;16.57;49.12;100364.75;5139239;27;20075;-74
2022/05/04 11:26:24;;;;;;;9.88;4.72;;;;;;;16.26;48.72;100366.91;5159204;27;20046;-78
2022/05/04 11:28:51;;;;;;;14.82;5.18;;;;;;;15.73;50.44;100366.41;5159014;27;20048;-78
2022/05/04 11:31:18;;;;;;;11.13;5.10;;;;;;;15.98;49.47;100356.84;5157386;27;20041;-77
2022/05/04 11:33:46;;;;;;;13.80;6.13;;;;;;;16.46;49.02;100358.31;5159446;27;20027;-79
2022/05/04 11:36:13;;;;;;;9.65;4.47;;;;;;;16.63;48.62;100348.31;5159028;27;20421;-78
2022/05/04 11:38:39;;;;;;;13.60;5.10;;;;;;;16.71;47.78;100347.03;5140285;27;20026;-76
2022/05/04 11:41:05;;;;;;;;;;;;;;;17.14;48.24;100343.66;5159077;27;20030;-76
2022/05/04 11:43:33;;;;;;;7.35;4.20;;;;;;;17.05;47.69;100349.75;5139421;27;19907;-77
2022/05/04 11:46:21;;;;;;;10.32;4.43;;;;;;;17.13;47.07;100339.28;5142161;27;20030;-78
2022/05/04 11:48:47;;;;;;;11.65;5.07;;;;;;;16.86;47.60;100341.03;5164379;27;20477;-78
2022/05/04 11:51:17;;;;;;;9.63;4.55;;;;;;;16.86;47.71;100341.84;5141581;27;20083;-79
2022/05/04 11:53:43;;;;;;;9.50;5.10;;;;;;;16.68;48.84;100339.38;5160950;27;20034;-78
2022/05/04 11:56:09;;;;;;;9.48;4.80;;;;;;;16.85;48.62;100340.19;5159451;27;20065;-77
2022/05/04 11:58:37;;;;;;;24.30;9.98;;;;;;;16.98;48.25;100339.06;5139845;27;20110;-78
2022/05/04 12:01:06;;;;;;;11.02;5.00;;;;;;;16.74;46.43;100338.41;5139641;27;20030;-77
2022/05/04 12:03:34;;;;;;;9.68;4.78;;;;;;;16.90;46.67;100337.56;5140547;27;20031;-77